Time;durP1;ratioP1;P1;durP2;ratioP2;P2;SDS_P1;SDS_P2;PMS_P1;PMS_P2;Temp;Humidity;BMP_temperature;BMP_pressure;BME280_temperature;BME280_humidity;BME280_pressure;Samples;Min_cycle;Max_cycle;Signal;HPM_P1;HPM_P2
2023/03/16 00:00:50;;;;;;;7.28;2.25;;;3.00;99.90;;;;;;5037656;28;20493;-68
2023/03/16 00:03:18;;;;;;;5.43;2.20;;;3.00;99.90;;;;;;5035757;28;20045;-69
2023/03/16 00:05:48;;;;;;;3.88;1.85;;;3.10;99.90;;;;;;5035191;28;20033;-70
2023/03/16 00:08:14;;;;;;;;;;;3.20;99.90;;;;;;5034203;28;20397;-68
2023/03/16 00:10:45;;;;;;;5.30;2.28;;;3.20;92.70;;;;;;5041995;28;19917;-69
2023/03/16 00:13:12;;;;;;;5.72;2.22;;;3.10;99.90;;;;;;5034516;28;20144;-69
2023/03/16 00:15:38;;;;;;;3.63;2.17;;;3.20;99.90;;;;;;5051582;28;20072;-69
2023/03/16 00:18:03;;;;;;;3.47;2.00;;;3.20;99.90;;;;;;5043756;28;20695;-69
2023/03/16 00:20:29;;;;;;;5.45;2.38;;;3.20;99.90;;;;;;5032007;28;20044;-69
2023/03/16 00:22:55;;;;;;;3.55;2.45;;;3.20;99.90;;;;;;5033456;28;20044;-69
2023/03/16 00:25:20;;;;;;;6.63;2.10;;;3.20;94.50;;;;;;5041334;28;20481;-69
2023/03/16 00:27:46;;;;;;;8.45;2.20;;;3.20;99.90;;;;;;5046080;28;20484;-69
2023/03/16 00:30:12;;;;;;;5.18;2.40;;;3.20;99.90;;;;;;5038227;28;20049;-69
2023/03/16 00:32:37;;;;;;;5.38;2.63;;;3.20;99.90;;;;;;5036029;28;20497;-69
2023/03/16 00:35:04;;;;;;;5.25;2.20;;;3.20;99.90;;;;;;5031273;28;20381;-68
2023/03/16 00:37:31;;;;;;;8.43;2.58;;;3.30;99.90;;;;;;5032275;28;20051;-69
2023/03/16 00:39:57;;;;;;;5.15;2.50;;;3.20;99.90;;;;;;5036393;28;20063;-70
2023/03/16 00:42:26;;;;;;;6.05;2.20;;;3.20;99.90;;;;;;5035221;28;20127;-68
2023/03/16 00:44:59;;;;;;;4.90;2.33;;;3.20;99.90;;;;;;5033602;28;20044;-69
2023/03/16 00:47:27;;;;;;;4.57;2.17;;;3.20;93.80;;;;;;5043669;28;20086;-70
2023/03/16 00:49:54;;;;;;;3.85;1.92;;;3.20;99.90;;;;;;5032185;28;20124;-70
2023/03/16 00:52:22;;;;;;;4.40;2.00;;;3.20;99.90;;;;;;5049977;28;20033;-71
2023/03/16 00:54:48;;;;;;;7.80;2.60;;;3.20;99.50;;;;;;5043495;28;20094;-68
2023/03/16 00:57:17;;;;;;;6.95;2.60;;;3.20;99.90;;;;;;5050263;28;20033;-70
2023/03/16 00:59:44;;;;;;;6.00;2.47;;;3.20;99.90;;;;;;5046207;28;20056;-69
2023/03/16 01:02:11;;;;;;;6.95;2.35;;;3.30;94.00;;;;;;5048506;28;20159;-69
2023/03/16 01:04:38;;;;;;;6.72;2.28;;;3.30;99.90;;;;;;5028888;28;20040;-70
2023/03/16 01:07:05;;;;;;;6.65;2.47;;;3.20;99.90;;;;;;5028482;28;20374;-68
2023/03/16 01:09:35;;;;;;;8.32;2.60;;;3.20;99.90;;;;;;5030197;28;20049;-68
2023/03/16 01:12:10;;;;;;;7.32;2.78;;;3.10;99.90;;;;;;5030867;28;20447;-69
2023/03/16 01:14:36;;;;;;;6.07;2.88;;;3.10;99.90;;;;;;5025051;28;20049;-69
2023/03/16 01:17:04;;;;;;;6.85;2.60;;;3.00;99.90;;;;;;5034903;28;20370;-69
2023/03/16 01:19:34;;;;;;;8.32;2.80;;;3.10;99.90;;;;;;5012644;28;20042;-68
2023/03/16 01:22:01;;;;;;;7.18;3.00;;;3.10;99.90;;;;;;5029592;28;20045;-69
2023/03/16 01:24:27;;;;;;;7.03;3.33;;;3.00;99.90;;;;;;5032276;28;20473;-68
2023/03/16 01:26:53;;;;;;;4.68;2.90;;;3.00;99.90;;;;;;5043551;28;20102;-69
2023/03/16 01:29:18;;;;;;;8.98;3.10;;;3.00;99.90;;;;;;5028581;28;20489;-69
2023/03/16 01:31:44;;;;;;;7.68;3.05;;;3.00;99.90;;;;;;5030325;28;20048;-69
2023/03/16 01:34:15;;;;;;;7.88;3.30;;;2.90;99.90;;;;;;5047065;28;20055;-71
2023/03/16 01:36:43;;;;;;;13.25;3.53;;;3.00;99.90;;;;;;5032983;28;20052;-67
2023/03/16 01:39:10;;;;;;;5.63;3.05;;;3.00;99.90;;;;;;5011833;28;20079;-68
2023/03/16 01:41:36;;;;;;;5.47;3.42;;;3.00;99.90;;;;;;5015381;28;20086;-68
2023/03/16 01:44:01;;;;;;;6.25;3.03;;;3.00;99.90;;;;;;5040798;28;20123;-68
2023/03/16 01:46:28;;;;;;;7.55;3.20;;;3.00;99.90;;;;;;5040272;28;20125;-69
2023/03/16 01:49:07;;;;;;;6.13;3.25;;;2.90;99.90;;;;;;5048105;28;20056;-68
2023/03/16 01:51:43;;;;;;;5.78;3.03;;;3.00;99.90;;;;;;5048374;28;20044;-69
2023/03/16 01:54:33;;;;;;;5.45;3.15;;;2.90;99.90;;;;;;5045446;28;20378;-69
2023/03/16 01:57:09;;;;;;;6.78;3.53;;;2.90;99.90;;;;;;5048071;28;20440;-69
2023/03/16 01:59:45;;;;;;;6.15;3.28;;;2.90;99.90;;;;;;5047446;28;20041;-68
2023/03/16 02:02:14;;;;;;;10.10;3.28;;;2.90;99.90;;;;;;5032932;28;20036;-69
2023/03/16 02:05:01;;;;;;;6.07;2.88;;;2.90;99.90;;;;;;5045581;28;20510;-68
2023/03/16 02:07:28;;;;;;;5.53;3.20;;;2.90;99.90;;;;;;5029103;28;20048;-68
2023/03/16 02:09:58;;;;;;;6.20;3.22;;;2.80;99.90;;;;;;5030404;28;20041;-69
2023/03/16 02:12:23;;;;;;;7.20;3.65;;;2.70;99.90;;;;;;5032296;28;20539;-69
2023/03/16 02:14:50;;;;;;;6.80;3.45;;;2.70;99.90;;;;;;5026837;28;20037;-69
2023/03/16 02:17:22;;;;;;;7.57;3.63;;;2.60;99.90;;;;;;5032108;28;20088;-68
2023/03/16 02:20:10;;;;;;;6.28;3.17;;;2.60;99.90;;;;;;5028539;28;20107;-69
2023/03/16 02:22:44;;;;;;;8.15;3.65;;;2.60;99.90;;;;;;5036726;28;20538;-70
2023/03/16 02:25:11;;;;;;;8.05;4.28;;;2.80;99.90;;;;;;5032322;28;20047;-69
2023/03/16 02:27:50;;;;;;;7.03;3.28;;;2.80;99.90;;;;;;5034233;28;20165;-70
2023/03/16 02:30:18;;;;;;;5.75;3.38;;;2.90;99.90;;;;;;5031291;28;20108;-69
2023/03/16 02:32:45;;;;;;;4.53;2.60;;;2.90;99.90;;;;;;5010790;28;20045;-69
2023/03/16 02:35:11;;;;;;;10.10;4.43;;;3.00;99.90;;;;;;5029908;28;20049;-69
2023/03/16 02:37:38;;;;;;;7.30;3.38;;;3.10;99.90;;;;;;5029447;28;20047;-68
2023/03/16 02:40:19;;;;;;;5.45;3.30;;;3.30;99.90;;;;;;5029922;28;20037;-69
2023/03/16 02:43:13;;;;;;;5.50;2.97;;;3.20;98.40;;;;;;5047253;28;20037;-68
2023/03/16 02:45:41;;;;;;;5.20;2.78;;;3.30;99.90;;;;;;5035564;28;20610;-68
2023/03/16 02:48:15;;;;;;;6.72;2.95;;;3.30;99.90;;;;;;5044330;28;20040;-69
2023/03/16 02:50:50;;;;;;;6.57;2.67;;;3.40;99.90;;;;;;5051273;28;20041;-68
2023/03/16 02:53:16;;;;;;;6.00;3.08;;;3.50;96.40;;;;;;5034382;28;20072;-67
2023/03/16 02:55:42;;;;;;;6.93;3.15;;;3.50;99.90;;;;;;5046169;28;20063;-69
2023/03/16 02:58:07;;;;;;;5.07;3.00;;;3.60;98.90;;;;;;5047348;28;20033;-69
2023/03/16 03:00:33;;;;;;;7.68;3.17;;;3.60;99.90;;;;;;5009810;28;20064;-69
2023/03/16 03:02:59;;;;;;;6.47;3.10;;;3.70;99.90;;;;;;5030596;28;20047;-70
2023/03/16 03:05:24;;;;;;;8.25;3.30;;;3.70;92.80;;;;;;5029380;28;20518;-72
2023/03/16 03:07:50;;;;;;;10.55;2.92;;;3.70;99.90;;;;;;5049491;28;20068;-71
2023/03/16 03:10:16;;;;;;;6.10;2.80;;;3.70;94.10;;;;;;5022982;28;20045;-69
2023/03/16 03:12:41;;;;;;;7.13;3.45;;;3.70;99.10;;;;;;5027055;28;20037;-69
2023/03/16 03:15:08;;;;;;;9.40;3.60;;;3.80;99.90;;;;;;5006868;28;20119;-69
2023/03/16 03:17:33;;;;;;;6.47;3.40;;;3.70;99.90;;;;;;5030646;28;20048;-68
2023/03/16 03:20:01;;;;;;;6.80;3.00;;;3.80;99.90;;;;;;5030358;28;20041;-66
2023/03/16 03:22:26;;;;;;;6.18;3.08;;;3.80;91.70;;;;;;5038746;28;20115;-70
2023/03/16 03:24:52;;;;;;;7.88;2.80;;;3.80;99.90;;;;;;5029567;28;20121;-68
2023/03/16 03:27:21;;;;;;;6.00;3.47;;;3.80;99.90;;;;;;5033134;28;20098;-69
2023/03/16 03:29:46;;;;;;;8.02;3.10;;;3.80;99.80;;;;;;5029282;28;20717;-67
2023/03/16 03:32:12;;;;;;;7.32;3.13;;;3.80;99.90;;;;;;5041007;28;20136;-69
2023/03/16 03:34:38;;;;;;;7.78;3.80;;;3.80;99.90;;;;;;5048100;28;20033;-68
2023/03/16 03:37:03;;;;;;;6.35;3.53;;;3.80;99.90;;;;;;5041969;28;20505;-69
2023/03/16 03:39:29;;;;;;;8.32;3.58;;;3.80;99.90;;;;;;5044654;28;20045;-70
2023/03/16 03:41:54;;;;;;;11.02;3.25;;;3.90;99.90;;;;;;5041829;28;20049;-68
2023/03/16 03:44:21;;;;;;;5.88;3.08;;;3.80;87.70;;;;;;5015209;28;20044;-70
2023/03/16 03:46:47;;;;;;;9.63;3.58;;;3.90;98.90;;;;;;5038869;28;20033;-69
2023/03/16 03:49:13;;;;;;;6.28;2.97;;;3.90;99.90;;;;;;5038925;28;20036;-70
2023/03/16 03:51:40;;;;;;;6.35;3.33;;;3.90;98.20;;;;;;5051642;28;20037;-68
2023/03/16 03:54:06;;;;;;;6.05;3.28;;;3.80;99.90;;;;;;5048213;28;20033;-68
2023/03/16 03:56:32;;;;;;;11.27;3.30;;;3.90;99.90;;;;;;5046263;28;20045;-69
2023/03/16 03:58:57;;;;;;;7.20;3.85;;;3.80;99.90;;;;;;5041997;28;20051;-68
2023/03/16 04:01:23;;;;;;;6.20;2.95;;;3.80;99.40;;;;;;5049041;28;20516;-68
2023/03/16 04:03:49;;;;;;;5.57;3.45;;;3.80;99.90;;;;;;5048881;28;20041;-69
2023/03/16 04:06:14;;;;;;;8.07;3.53;;;3.80;99.90;;;;;;5051382;28;20055;-68
2023/03/16 04:08:40;;;;;;;8.27;3.50;;;3.80;91.30;;;;;;5050382;28;20127;-69
2023/03/16 04:11:05;;;;;;;6.35;3.22;;;3.80;99.90;;;;;;5036605;28;20420;-68
2023/03/16 04:13:31;;;;;;;7.00;3.47;;;3.80;99.90;;;;;;5041619;28;20045;-69
2023/03/16 04:15:58;;;;;;;8.75;3.92;;;3.90;99.90;;;;;;5020972;28;20504;-69
2023/03/16 04:18:24;;;;;;;6.35;3.35;;;3.80;96.00;;;;;;5034814;28;20145;-69
2023/03/16 04:20:52;;;;;;;6.05;3.88;;;3.80;99.90;;;;;;5032163;28;20469;-68
2023/03/16 04:23:18;;;;;;;7.05;3.60;;;3.80;99.90;;;;;;5035924;28;20065;-69
2023/03/16 04:25:45;;;;;;;6.47;3.15;;;3.80;99.90;;;;;;5035594;28;20041;-70
2023/03/16 04:28:10;;;;;;;6.38;3.47;;;3.80;99.90;;;;;;5033241;28;20040;-69
2023/03/16 04:30:36;;;;;;;5.10;3.22;;;3.80;99.90;;;;;;5038032;28;20120;-69
2023/03/16 04:33:02;;;;;;;6.03;3.55;;;3.80;99.90;;;;;;5037501;28;20091;-68
2023/03/16 04:35:27;;;;;;;5.90;3.58;;;3.90;99.90;;;;;;5037557;28;20524;-69
2023/03/16 04:37:53;;;;;;;8.63;3.97;;;3.90;98.20;;;;;;5042465;28;20095;-69
2023/03/16 04:40:19;;;;;;;6.18;3.60;;;3.90;93.10;;;;;;5031579;28;20041;-68
2023/03/16 04:42:46;;;;;;;8.13;4.03;;;3.90;99.90;;;;;;5039045;28;20048;-70
2023/03/16 04:45:13;;;;;;;6.32;3.60;;;3.90;99.90;;;;;;5033635;28;20037;-70
2023/03/16 04:47:39;;;;;;;6.47;3.65;;;3.90;99.90;;;;;;5036505;28;20060;-67
2023/03/16 04:50:05;;;;;;;10.38;3.75;;;3.90;99.90;;;;;;5038334;28;20512;-69
2023/03/16 04:52:31;;;;;;;6.93;3.50;;;3.90;99.90;;;;;;5033352;28;20093;-69
2023/03/16 04:54:57;;;;;;;8.80;3.45;;;3.90;99.90;;;;;;5031647;28;20561;-68
2023/03/16 04:57:22;;;;;;;5.05;3.47;;;3.90;99.90;;;;;;5033711;28;20037;-69
2023/03/16 04:59:48;;;;;;;8.30;3.65;;;3.90;99.90;;;;;;5031260;28;20131;-70
2023/03/16 05:02:13;;;;;;;7.55;4.10;;;3.90;99.90;;;;;;5033233;28;20098;-69
2023/03/16 05:04:39;;;;;;;6.57;3.38;;;3.90;99.90;;;;;;5034944;28;20076;-68
2023/03/16 05:07:05;;;;;;;6.70;3.15;;;3.90;99.90;;;;;;5046176;28;20469;-68
2023/03/16 05:09:30;;;;;;;6.68;3.90;;;3.90;99.90;;;;;;5047289;28;20049;-69
2023/03/16 05:11:56;;;;;;;7.80;3.45;;;3.90;99.90;;;;;;5045007;28;20388;-69
2023/03/16 05:14:22;;;;;;;8.40;3.53;;;3.90;99.90;;;;;;5047809;28;20641;-70
2023/03/16 05:16:48;;;;;;;6.68;3.63;;;3.90;99.90;;;;;;5046098;28;20036;-68
2023/03/16 05:19:13;;;;;;;6.53;3.85;;;3.90;94.20;;;;;;5038855;28;20048;-66
2023/03/16 05:21:39;;;;;;;5.47;3.40;;;3.90;94.80;;;;;;5033776;28;20037;-70
2023/03/16 05:24:05;;;;;;;6.68;3.25;;;3.90;99.90;;;;;;5048220;28;20082;-67
2023/03/16 05:26:31;;;;;;;6.93;3.53;;;3.90;99.90;;;;;;5050548;28;20041;-67
2023/03/16 05:28:57;;;;;;;6.20;3.50;;;3.90;99.90;;;;;;5030214;28;20389;-69
2023/03/16 05:31:25;;;;;;;6.18;3.78;;;3.90;99.90;;;;;;5049150;28;20524;-68
2023/03/16 05:33:52;;;;;;;8.35;3.83;;;3.90;99.90;;;;;;5036269;28;20045;-68
2023/03/16 05:36:18;;;;;;;6.13;3.45;;;3.90;99.90;;;;;;5029251;28;20112;-68
2023/03/16 05:38:44;;;;;;;8.50;3.47;;;3.90;97.40;;;;;;5030653;28;20548;-68
2023/03/16 05:41:10;;;;;;;9.93;3.63;;;3.90;99.90;;;;;;5030452;28;20038;-67
2023/03/16 05:43:36;;;;;;;6.55;4.00;;;3.90;99.00;;;;;;5027209;28;20126;-69
2023/03/16 05:46:02;;;;;;;5.05;3.33;;;3.90;99.90;;;;;;5030202;28;20083;-67
2023/03/16 05:48:28;;;;;;;7.47;3.92;;;3.90;94.70;;;;;;5030801;28;20037;-69
2023/03/16 05:50:53;;;;;;;5.65;3.53;;;4.00;99.00;;;;;;5030127;28;20033;-67
2023/03/16 05:53:19;;;;;;;10.60;4.07;;;3.90;99.90;;;;;;5029226;28;20044;-69
2023/03/16 05:55:51;;;;;;;12.13;3.90;;;4.00;99.90;;;;;;5021591;28;20072;-68
2023/03/16 05:58:17;;;;;;;9.50;3.65;;;4.00;99.90;;;;;;5031417;28;20128;-69
2023/03/16 06:00:43;;;;;;;6.82;3.90;;;4.00;99.90;;;;;;5032794;28;20053;-68
2023/03/16 06:03:08;;;;;;;8.55;4.03;;;4.00;99.90;;;;;;5031770;28;20041;-68
2023/03/16 06:05:34;;;;;;;7.50;3.58;;;4.00;99.90;;;;;;5045212;28;20037;-68
2023/03/16 06:08:00;;;;;;;6.90;3.65;;;4.00;99.90;;;;;;5012979;28;20041;-67
2023/03/16 06:10:26;;;;;;;9.85;3.90;;;4.00;99.90;;;;;;5030246;28;20041;-66
2023/03/16 06:12:52;;;;;;;7.05;3.67;;;4.00;95.90;;;;;;5038901;28;20052;-67
2023/03/16 06:15:17;;;;;;;9.63;3.83;;;4.00;97.60;;;;;;5032731;28;20049;-68
2023/03/16 06:17:43;;;;;;;10.00;4.30;;;4.00;99.90;;;;;;5033405;28;20406;-67
2023/03/16 06:20:11;;;;;;;6.22;3.80;;;4.00;99.90;;;;;;5031345;28;20072;-67
2023/03/16 06:22:41;;;;;;;6.78;3.78;;;4.10;99.90;;;;;;5029550;28;20037;-68
2023/03/16 06:25:09;;;;;;;6.13;3.60;;;4.00;99.90;;;;;;5035701;28;20033;-69
2023/03/16 06:27:35;;;;;;;11.80;4.15;;;4.00;99.90;;;;;;5031016;28;20049;-67
2023/03/16 06:30:01;;;;;;;8.52;3.95;;;4.00;99.90;;;;;;5028641;28;20087;-66
2023/03/16 06:32:27;;;;;;;7.30;3.63;;;3.90;99.90;;;;;;5036006;28;20056;-68
2023/03/16 06:34:52;;;;;;;6.85;3.83;;;3.90;99.90;;;;;;5029004;28;20439;-69
2023/03/16 06:37:18;;;;;;;6.53;3.50;;;3.90;99.90;;;;;;5031798;28;20059;-68
2023/03/16 06:39:43;;;;;;;7.65;3.67;;;3.80;99.90;;;;;;5028285;28;20044;-67
2023/03/16 06:42:10;;;;;;;6.43;4.05;;;3.80;99.90;;;;;;5036761;28;20052;-68
2023/03/16 06:44:36;;;;;;;8.15;3.70;;;3.90;99.90;;;;;;5031729;28;20051;-69
2023/03/16 06:47:02;;;;;;;7.47;3.70;;;3.90;99.90;;;;;;5029600;28;20484;-67
2023/03/16 06:49:28;;;;;;;6.95;3.05;;;4.00;99.90;;;;;;5038247;28;20068;-67
2023/03/16 06:51:54;;;;;;;7.95;4.00;;;4.00;99.90;;;;;;5029337;28;20037;-68
2023/03/16 06:54:20;;;;;;;6.30;4.00;;;4.10;99.90;;;;;;5027991;28;20065;-68
2023/03/16 06:56:45;;;;;;;6.85;3.75;;;4.10;99.90;;;;;;5030763;28;20041;-67
2023/03/16 06:59:11;;;;;;;9.52;3.88;;;4.20;99.90;;;;;;5025322;28;20224;-67
2023/03/16 07:01:36;;;;;;;4.53;3.20;;;4.20;99.90;;;;;;5033873;28;20056;-67
2023/03/16 07:04:02;;;;;;;7.30;3.65;;;4.30;99.90;;;;;;5032811;28;20378;-69
2023/03/16 07:06:28;;;;;;;6.22;3.80;;;4.30;99.90;;;;;;5032820;28;20040;-68
2023/03/16 07:08:53;;;;;;;7.10;3.60;;;4.40;99.90;;;;;;5038818;28;20103;-68
2023/03/16 07:11:19;;;;;;;7.03;3.67;;;4.40;99.90;;;;;;5049135;28;20047;-67
2023/03/16 07:13:44;;;;;;;7.65;3.55;;;4.50;99.90;;;;;;5048908;28;20591;-67
2023/03/16 07:16:10;;;;;;;7.45;3.83;;;4.50;99.90;;;;;;5049376;28;20477;-69
2023/03/16 07:18:38;;;;;;;6.72;3.40;;;4.50;99.90;;;;;;5040005;28;20036;-69
2023/03/16 07:21:04;;;;;;;6.47;3.20;;;4.50;99.90;;;;;;5039775;28;20052;-67
2023/03/16 07:23:31;;;;;;;5.97;3.72;;;4.60;99.90;;;;;;5043276;28;20025;-68
2023/03/16 07:25:56;;;;;;;6.78;3.70;;;4.60;99.90;;;;;;5035970;28;20045;-67
2023/03/16 07:28:22;;;;;;;5.45;3.30;;;4.60;99.20;;;;;;5038728;28;20040;-67
2023/03/16 07:30:47;;;;;;;5.60;3.20;;;4.70;99.90;;;;;;5048758;28;20029;-68
2023/03/16 07:33:13;;;;;;;6.25;3.40;;;4.80;99.90;;;;;;5040609;28;20457;-67
2023/03/16 07:35:40;;;;;;;5.50;3.47;;;4.70;99.90;;;;;;5045142;28;20077;-65
2023/03/16 07:38:05;;;;;;;6.97;3.28;;;4.80;99.90;;;;;;5042211;28;20041;-66
2023/03/16 07:40:33;;;;;;;6.75;3.95;;;4.80;99.90;;;;;;5034298;28;20048;-63
2023/03/16 07:42:58;;;;;;;5.22;3.38;;;4.90;99.90;;;;;;5033233;28;20121;-64
2023/03/16 07:45:24;;;;;;;7.38;3.53;;;4.90;98.70;;;;;;5032634;28;20482;-64
2023/03/16 07:47:50;;;;;;;9.45;4.25;;;4.90;99.90;;;;;;5036646;28;20038;-65
2023/03/16 07:50:18;;;;;;;5.10;3.13;;;4.90;99.90;;;;;;5038036;28;20068;-67
2023/03/16 07:52:45;;;;;;;7.40;3.70;;;4.90;99.90;;;;;;5035210;28;20543;-68
2023/03/16 07:55:11;;;;;;;7.60;3.67;;;4.80;96.40;;;;;;5014996;28;20551;-67
2023/03/16 07:57:38;;;;;;;7.32;3.15;;;4.90;99.90;;;;;;5032371;28;20513;-67
2023/03/16 08:00:06;;;;;;;6.15;3.90;;;4.90;99.90;;;;;;5029434;28;20076;-68
2023/03/16 08:02:31;;;;;;;6.32;3.60;;;4.80;99.90;;;;;;5032493;28;20041;-67
2023/03/16 08:04:57;;;;;;;7.15;3.42;;;4.80;99.90;;;;;;5030993;28;20060;-67
2023/03/16 08:07:22;;;;;;;11.38;3.97;;;4.80;99.90;;;;;;5035812;28;20060;-71
2023/03/16 08:09:48;;;;;;;8.30;3.50;;;4.80;99.90;;;;;;5031049;28;20500;-67
2023/03/16 08:12:14;;;;;;;6.22;3.45;;;4.80;99.90;;;;;;5030642;28;20036;-68
2023/03/16 08:14:39;;;;;;;6.68;3.90;;;4.90;99.90;;;;;;5029669;28;20413;-67
2023/03/16 08:17:06;;;;;;;6.35;3.30;;;4.90;99.90;;;;;;5039138;28;20045;-66
2023/03/16 08:19:32;;;;;;;6.55;3.50;;;4.90;99.90;;;;;;5047916;28;20068;-69
2023/03/16 08:22:00;;;;;;;8.50;3.47;;;4.90;99.90;;;;;;5050400;28;20032;-68
2023/03/16 08:24:26;;;;;;;6.82;3.88;;;4.90;99.90;;;;;;5046823;28;20516;-67
2023/03/16 08:26:52;;;;;;;12.32;4.47;;;4.80;99.90;;;;;;5043551;28;20120;-67
2023/03/16 08:29:18;;;;;;;6.50;3.47;;;4.80;99.90;;;;;;5047107;28;20128;-67
2023/03/16 08:31:44;;;;;;;9.40;4.40;;;4.70;99.90;;;;;;5048290;28;20041;-68
2023/03/16 08:34:10;;;;;;;8.57;4.07;;;4.70;99.90;;;;;;5041714;28;20037;-67
2023/03/16 08:36:35;;;;;;;9.20;4.45;;;4.70;99.90;;;;;;5044570;28;20749;-69
2023/03/16 08:39:02;;;;;;;6.07;4.25;;;4.70;99.90;;;;;;5045641;28;20057;-68
2023/03/16 08:41:29;;;;;;;7.80;4.47;;;4.70;99.90;;;;;;5047859;28;21347;-68
2023/03/16 08:43:56;;;;;;;9.93;4.80;;;4.70;99.90;;;;;;5031781;28;20218;-68
2023/03/16 08:46:23;;;;;;;7.40;4.07;;;4.70;99.90;;;;;;5047515;28;20040;-67
2023/03/16 08:48:48;;;;;;;7.80;4.28;;;4.70;99.90;;;;;;5048748;28;20521;-68
2023/03/16 08:51:14;;;;;;;8.70;4.15;;;4.70;99.90;;;;;;5042404;28;20060;-68
2023/03/16 08:53:40;;;;;;;6.40;4.07;;;4.70;99.90;;;;;;5041355;28;20055;-68
2023/03/16 08:56:08;;;;;;;6.97;4.15;;;4.70;99.90;;;;;;5034042;28;20124;-67
2023/03/16 08:58:35;;;;;;;8.32;3.97;;;4.70;99.90;;;;;;5044049;28;20052;-67
2023/03/16 09:01:02;;;;;;;8.98;4.50;;;4.60;99.90;;;;;;5045840;28;20733;-68
2023/03/16 09:03:28;;;;;;;8.18;3.88;;;4.50;99.90;;;;;;5045436;28;20063;-67
2023/03/16 09:06:06;;;;;;;12.15;4.68;;;4.40;99.90;;;;;;5041150;28;20397;-68
2023/03/16 09:08:32;;;;;;;6.88;3.83;;;4.40;99.90;;;;;;5041892;28;20049;-71
2023/03/16 09:11:04;;;;;;;7.78;4.40;;;4.40;99.90;;;;;;5037278;28;20064;-69
2023/03/16 09:13:30;;;;;;;8.00;4.25;;;4.30;99.90;;;;;;5042154;28;20053;-68
2023/03/16 09:15:56;;;;;;;10.40;4.70;;;4.40;99.90;;;;;;5044973;28;20119;-69
2023/03/16 09:18:25;;;;;;;12.27;4.28;;;4.40;99.90;;;;;;5038266;28;20045;-67
2023/03/16 09:20:51;;;;;;;6.65;4.70;;;4.40;99.90;;;;;;5036684;28;20489;-67
2023/03/16 09:23:18;;;;;;;8.82;4.35;;;4.40;99.90;;;;;;5042782;28;20086;-69
2023/03/16 09:25:44;;;;;;;9.77;4.55;;;4.40;99.90;;;;;;5045660;28;20504;-66
2023/03/16 09:28:10;;;;;;;7.35;4.35;;;4.50;99.90;;;;;;5034624;28;20041;-69
2023/03/16 09:30:36;;;;;;;8.63;4.93;;;4.50;99.90;;;;;;5033611;28;20053;-68
2023/03/16 09:33:02;;;;;;;7.38;4.60;;;4.50;99.90;;;;;;5049066;28;20483;-68
2023/03/16 09:35:28;;;;;;;8.07;4.40;;;4.50;99.90;;;;;;5038507;28;20057;-68
2023/03/16 09:37:54;;;;;;;8.95;4.97;;;4.50;99.90;;;;;;5045515;28;20060;-67
2023/03/16 09:40:23;;;;;;;9.75;5.25;;;4.60;99.90;;;;;;5048398;28;20037;-67
2023/03/16 09:43:08;;;;;;;11.52;5.22;;;4.60;99.90;;;;;;5038900;28;20124;-68
2023/03/16 09:45:56;;;;;;;11.65;5.43;;;4.70;99.90;;;;;;5037895;28;20041;-67
2023/03/16 09:48:24;;;;;;;10.32;5.05;;;4.70;99.90;;;;;;5044986;28;20049;-67
2023/03/16 09:50:51;;;;;;;11.48;5.68;;;4.70;99.90;;;;;;5043933;28;20531;-67
2023/03/16 09:53:24;;;;;;;10.73;4.90;;;4.70;99.90;;;;;;5050825;28;20064;-68
2023/03/16 09:56:02;;;;;;;11.02;5.32;;;4.80;99.90;;;;;;5049342;28;20055;-66
2023/03/16 09:58:27;;;;;;;10.20;5.53;;;4.90;99.90;;;;;;5045913;28;20579;-67
2023/03/16 10:01:27;;;;;;;9.90;5.68;;;5.10;99.90;;;;;;5030183;28;20053;-68
2023/03/16 10:04:20;;;;;;;15.90;5.93;;;5.20;99.90;;;;;;5036995;28;20094;-69
2023/03/16 10:07:09;;;;;;;9.75;5.30;;;5.30;99.90;;;;;;5040224;28;20440;-68
2023/03/16 10:09:55;;;;;;;10.63;5.10;;;5.30;99.90;;;;;;5004020;28;20061;-70
2023/03/16 10:12:27;;;;;;;11.23;5.45;;;5.40;99.90;;;;;;5046235;28;20076;-72
2023/03/16 10:15:06;;;;;;;10.82;5.00;;;5.40;99.90;;;;;;5037594;28;20037;-68
2023/03/16 10:17:46;;;;;;;12.63;5.80;;;5.40;99.90;;;;;;5046208;28;20041;-68
2023/03/16 10:20:19;;;;;;;10.52;5.65;;;5.40;99.90;;;;;;5046663;28;20535;-67
2023/03/16 10:22:46;;;;;;;9.75;5.40;;;5.40;99.90;;;;;;5043836;28;20044;-66
2023/03/16 10:25:34;;;;;;;8.25;5.22;;;5.30;99.90;;;;;;5038241;28;20046;-66
2023/03/16 10:27:59;;;;;;;13.02;5.28;;;5.30;99.90;;;;;;5046706;28;20527;-68
2023/03/16 10:30:30;;;;;;;11.60;5.13;;;5.20;99.90;;;;;;5042792;28;20037;-71
2023/03/16 10:33:02;;;;;;;15.60;6.68;;;5.30;99.90;;;;;;5049699;28;20036;-67
2023/03/16 10:35:44;;;;;;;12.32;6.00;;;5.30;99.90;;;;;;5045080;28;20370;-67
2023/03/16 10:38:31;;;;;;;11.48;6.10;;;5.30;99.90;;;;;;5030380;28;20045;-68
2023/03/16 10:40:58;;;;;;;9.63;5.57;;;5.40;99.90;;;;;;5040006;28;20041;-66
2023/03/16 10:43:24;;;;;;;12.43;5.97;;;5.40;99.90;;;;;;5047072;28;20040;-67
2023/03/16 10:45:50;;;;;;;12.10;5.43;;;5.40;99.90;;;;;;5047200;28;20515;-69
2023/03/16 10:48:20;;;;;;;10.93;5.78;;;5.50;99.90;;;;;;5051006;28;20049;-67
2023/03/16 10:50:55;;;;;;;7.97;4.38;;;5.50;99.90;;;;;;5029241;28;20557;-68
2023/03/16 10:53:28;;;;;;;9.25;5.03;;;5.60;99.90;;;;;;5020361;28;20088;-68
2023/03/16 10:56:10;;;;;;;8.52;4.85;;;5.60;99.90;;;;;;5047055;28;20045;-67
2023/03/16 10:58:41;;;;;;;7.78;4.80;;;5.60;99.90;;;;;;5026950;28;20053;-68
2023/03/16 11:01:17;;;;;;;11.57;5.22;;;5.60;99.90;;;;;;5035825;28;20045;-67
2023/03/16 11:03:49;;;;;;;8.60;4.97;;;5.60;99.90;;;;;;5047929;28;20107;-67
2023/03/16 11:06:29;;;;;;;9.40;5.28;;;5.60;99.90;;;;;;5047579;28;20064;-67
2023/03/16 11:09:07;;;;;;;9.13;4.60;;;5.60;99.90;;;;;;5046689;28;20060;-69
2023/03/16 11:11:33;;;;;;;8.75;4.55;;;5.60;99.90;;;;;;5050289;28;20052;-66
2023/03/16 11:14:03;;;;;;;10.27;5.43;;;5.60;99.90;;;;;;5044891;28;20049;-66
2023/03/16 11:16:40;;;;;;;8.88;4.70;;;5.60;99.90;;;;;;5038011;28;20423;-67
2023/03/16 11:19:26;;;;;;;9.48;4.93;;;5.70;99.90;;;;;;5047878;28;20033;-66
2023/03/16 11:21:57;;;;;;;8.68;4.25;;;5.70;99.90;;;;;;5047121;28;20086;-68
2023/03/16 11:24:40;;;;;;;9.40;4.60;;;5.70;99.90;;;;;;5035157;28;20037;-66
2023/03/16 11:27:17;;;;;;;8.93;4.47;;;5.80;99.90;;;;;;5036427;28;20119;-67
2023/03/16 11:30:15;;;;;;;9.80;4.72;;;5.80;99.90;;;;;;5026506;28;20045;-68
2023/03/16 11:32:49;;;;;;;8.00;4.88;;;5.70;99.90;;;;;;5032680;28;20508;-68
2023/03/16 11:35:22;;;;;;;10.63;5.15;;;5.70;99.90;;;;;;5041013;28;20065;-68
2023/03/16 11:38:13;;;;;;;8.00;4.80;;;5.80;99.90;;;;;;5032870;28;20036;-67
2023/03/16 11:41:01;;;;;;;10.57;4.85;;;5.70;99.90;;;;;;5042189;28;20076;-70
2023/03/16 11:43:48;;;;;;;10.70;4.78;;;5.70;99.90;;;;;;5037009;28;20080;-66
2023/03/16 11:46:24;;;;;;;8.40;4.55;;;5.70;99.90;;;;;;5044710;28;20133;-69
2023/03/16 11:49:09;;;;;;;10.52;5.38;;;5.70;99.90;;;;;;5053744;28;20052;-66
2023/03/16 11:52:07;;;;;;;11.27;4.72;;;5.70;99.90;;;;;;5051659;28;20538;-66
2023/03/16 11:54:54;;;;;;;7.05;4.20;;;5.80;99.90;;;;;;5034006;28;20382;-68
2023/03/16 11:57:35;;;;;;;12.32;5.10;;;5.90;99.90;;;;;;5047466;28;20049;-68
2023/03/16 12:00:07;;;;;;;9.02;4.97;;;5.90;99.90;;;;;;5041032;28;20061;-67
2023/03/16 12:02:38;;;;;;;9.60;4.90;;;6.00;99.90;;;;;;5049526;28;20048;-68
2023/03/16 12:05:48;;;;;;;9.07;5.03;;;6.00;99.90;;;;;;5038076;28;20091;-68
2023/03/16 12:08:21;;;;;;;7.40;4.10;;;6.10;99.90;;;;;;5043442;28;20119;-67
2023/03/16 12:11:09;;;;;;;8.07;4.10;;;6.20;99.90;;;;;;5042160;28;20087;-68
2023/03/16 12:14:02;;;;;;;8.50;4.32;;;6.20;99.90;;;;;;5041066;28;20049;-67
2023/03/16 12:16:41;;;;;;;7.13;4.10;;;6.30;99.90;;;;;;5043630;28;20091;-68
2023/03/16 12:19:16;;;;;;;6.65;4.55;;;6.40;99.90;;;;;;5050367;28;20029;-68
2023/03/16 12:21:47;;;;;;;8.93;5.03;;;6.60;99.90;;;;;;5052233;28;20446;-70
2023/03/16 12:24:25;;;;;;;8.40;4.32;;;6.80;99.90;;;;;;5050580;28;20506;-67
2023/03/16 12:26:52;;;;;;;7.75;4.32;;;7.00;99.90;;;;;;5049615;28;20086;-68
2023/03/16 12:29:34;;;;;;;6.57;3.65;;;7.10;99.90;;;;;;5043082;28;20112;-65
2023/03/16 12:32:24;;;;;;;8.18;4.38;;;7.20;99.90;;;;;;5041331;28;20128;-69
2023/03/16 12:35:03;;;;;;;6.93;4.15;;;7.30;99.90;;;;;;5036620;28;20048;-67
2023/03/16 12:37:35;;;;;;;6.85;3.72;;;7.40;99.90;;;;;;5045925;28;20041;-66
2023/03/16 12:40:06;;;;;;;6.00;3.63;;;7.50;99.90;;;;;;5035297;28;20049;-67
2023/03/16 12:43:09;;;;;;;7.35;4.00;;;7.60;99.90;;;;;;5048300;28;20052;-67
2023/03/16 12:45:51;;;;;;;7.40;3.58;;;7.80;99.90;;;;;;5040593;28;20114;-67
2023/03/16 12:48:40;;;;;;;5.55;4.05;;;7.90;99.90;;;;;;5046678;28;20055;-65
2023/03/16 12:51:06;;;;;;;7.32;3.67;;;8.10;99.90;;;;;;5050740;28;20044;-67
2023/03/16 12:53:42;;;;;;;5.82;3.47;;;8.30;99.90;;;;;;5045890;28;20548;-66
2023/03/16 12:56:11;;;;;;;7.50;4.00;;;8.30;99.90;;;;;;5046273;28;20064;-68
2023/03/16 12:59:01;;;;;;;7.78;4.00;;;8.50;99.90;;;;;;5030053;28;20179;-67
2023/03/16 13:01:29;;;;;;;9.88;3.70;;;8.50;99.90;;;;;;5046438;28;20064;-68
2023/03/16 13:04:18;;;;;;;8.48;3.97;;;8.60;99.90;;;;;;5051546;28;20103;-66
2023/03/16 13:06:50;;;;;;;8.82;3.58;;;8.60;99.90;;;;;;5041649;28;20528;-67
2023/03/16 13:09:24;;;;;;;6.45;3.08;;;8.50;99.90;;;;;;5046224;28;20059;-69